Data for 08/30/2010

Time Sea-Level Adjusted Pressure Absolute Pressure Temperature Relative Humidity Dew Point   
(mb) (inHg) (mb) (inHg) (C) (F) (%) (C) (F)
00:05 1014 29.94 843 24.89 7.7 45.8 92 6.4 43.5
00:10 1014 29.94 843 24.89 7.6 45.8 92 6.5 43.7
00:15 1014 29.94 843 24.89 7.6 45.7 92 6.4 43.6
00:20 1014 29.94 843 24.89 7.7 45.8 92 6.5 43.8
00:25 1014 29.94 843 24.89 7.7 45.9 93 6.7 44
00:30 1014 29.94 843 24.89 7.7 45.9 93 6.6 43.9
00:35 1014 29.94 843 24.89 7.8 46 93 6.7 44
00:40 1014 29.94 843 24.89 7.8 46.1 92 6.6 43.8
00:45 1014 29.94 843 24.89 7.9 46.2 90 6.4 43.5
00:50 1014 29.94 843 24.89 8 46.5 89 6.3 43.4
00:55 1014 29.94 843 24.89 8.1 46.7 90 6.5 43.8
01:00 1014 29.94 843 24.89 8.2 46.8 89 6.5 43.7
01:05 1014 29.94 843 24.89 8.1 46.6 90 6.5 43.7
01:10 1014 29.94 843 24.89 8.1 46.6 90 6.5 43.7
01:15 1014 29.94 843 24.89 8.1 46.5 91 6.6 43.9
01:20 1014 29.94 843 24.89 8 46.3 90 6.4 43.6
01:25 1014 29.94 843 24.89 8 46.4 89 6.3 43.3
01:30 1014 29.94 843 24.89 8.1 46.6 89 6.4 43.5
01:35 1014 29.94 843 24.89 8.3 46.9 87 6.3 43.3
01:40 1014 29.94 843 24.89 8.4 47 86 6.2 43.1
01:45 1014 29.94 843 24.89 8.4 47.1 86 6.1 43
01:50 1014 29.94 843 24.89 8.3 46.9 86 6.1 43
01:55 1014 29.94 843 24.89 8.4 47.1 85 6.1 42.9
02:00 1014 29.94 843 24.89 8.5 47.3 87 6.5 43.8
02:05 1014 29.94 843 24.89 8.5 47.3 86 6.4 43.5
02:10 1014 29.94 843 24.89 8.5 47.3 85 6.1 43.1
02:15 1013 29.91 843 24.89 8.6 47.5 86 6.4 43.5
02:20 1013 29.91 843 24.89 8.6 47.4 85 6.2 43.2
02:25 1013 29.91 843 24.89 8.6 47.4 86 6.4 43.5
02:30 1013 29.91 843 24.89 8.5 47.2 86 6.2 43.2
02:35 1013 29.91 843 24.89 8.5 47.2 86 6.2 43.2
02:40 1013 29.91 843 24.89 8.5 47.3 86 6.3 43.4
02:45 1013 29.91 843 24.89 8.5 47.3 85 6.1 43
02:50 1013 29.91 843 24.89 8.5 47.3 86 6.3 43.3
02:55 1014 29.94 843 24.89 8.5 47.2 86 6.2 43.2
03:00 1014 29.94 843 24.89 8.5 47.2 85 6.2 43.1
03:05 1013 29.91 843 24.89 8.3 47 87 6.2 43.2
03:10 1013 29.91 843 24.89 8.3 47 87 6.3 43.4
03:15 1013 29.91 843 24.89 8.3 47 87 6.3 43.4
03:20 1013 29.91 843 24.89 8.5 47.2 87 6.4 43.5
03:25 1013 29.91 842 24.86 8.5 47.4 87 6.6 43.8
03:30 1013 29.91 842 24.86 8.5 47.3 88 6.6 43.9
03:35 1013 29.91 842 24.86 8.4 47.1 88 6.6 43.8
03:40 1013 29.91 843 24.89 8.4 47.1 87 6.4 43.5
03:45 1013 29.91 843 24.89 8.6 47.4 87 6.6 43.8
03:50 1013 29.91 843 24.89 8.6 47.5 87 6.6 43.9
03:55 1013 29.91 842 24.86 8.6 47.4 87 6.6 43.9
04:00 1013 29.91 842 24.86 8.5 47.3 88 6.7 44
04:05 1013 29.91 842 24.86 8.3 47 90 6.7 44.1
04:10 1013 29.91 842 24.86 8.3 46.9 90 6.7 44.1
04:15 1013 29.91 842 24.86 8.3 46.9 91 6.8 44.3
04:20 1013 29.91 842 24.86 7.9 46.2 93 6.8 44.2
04:25 1013 29.91 842 24.86 7.8 46 94 6.9 44.5
04:30 1013 29.91 842 24.86 7.9 46.1 94 7 44.5
04:35 1013 29.91 842 24.86 7.8 46 94 6.8 44.3
04:40 1013 29.91 842 24.86 7.6 45.7 94 6.7 44.1
04:45 1013 29.91 842 24.86 7.6 45.7 95 6.9 44.4
04:50 1013 29.91 843 24.89 7.8 46 95 7 44.6
04:55 1013 29.91 842 24.86 7.8 46 95 7 44.5
05:00 1013 29.91 842 24.86 7.7 45.9 94 6.8 44.3
05:05 1013 29.91 842 24.86 7.7 45.9 95 6.9 44.5
05:10 1013 29.91 842 24.86 7.8 46 95 7 44.6
05:15 1013 29.91 842 24.86 7.9 46.2 95 7.1 44.7
05:20 1013 29.91 842 24.86 7.9 46.3 94 7.1 44.7
05:25 1013 29.91 842 24.86 7.9 46.2 95 7.1 44.8
05:30 1013 29.91 842 24.86 7.9 46.3 95 7.1 44.8
05:35 1013 29.91 842 24.86 8 46.4 94 7.1 44.8
05:40 1013 29.91 842 24.86 7.9 46.3 94 7.1 44.7
05:45 1013 29.91 842 24.86 7.9 46.2 94 7.1 44.7
05:50 1013 29.91 842 24.86 7.8 46 95 7 44.5
05:55 1013 29.91 842 24.86 7.8 46 95 7 44.5
06:00 1013 29.91 842 24.86 7.8 46 95 6.9 44.5
06:05 1013 29.91 842 24.86 7.9 46.2 95 7.1 44.8
06:10 1013 29.91 842 24.86 7.9 46.3 94 7 44.6
06:15 1013 29.91 842 24.86 7.9 46.1 94 7 44.5
06:20 1013 29.91 842 24.86 7.9 46.2 95 7.1 44.7
06:25 1013 29.91 842 24.86 7.9 46.3 95 7.1 44.8
06:30 1013 29.91 842 24.86 7.9 46.3 95 7.1 44.8
06:35 1013 29.91 842 24.86 7.9 46.2 95 7.1 44.8
06:40 1013 29.91 842 24.86 7.9 46.2 94 7 44.6
06:45 1013 29.91 842 24.86 7.9 46.1 95 7 44.7
06:50 1013 29.91 842 24.86 7.9 46.1 94 7 44.6
06:55 1013 29.91 842 24.86 7.8 46 95 7 44.5
07:00 1013 29.91 842 24.86 7.8 46 95 7.1 44.8
07:05 1013 29.91 842 24.86 7.9 46.2 95 7.1 44.9
07:10 1013 29.91 842 24.86 7.9 46.2 95 7.1 44.9
07:15 1013 29.91 842 24.86 7.9 46.3 95 7.2 44.9
07:20 1013 29.91 842 24.86 7.9 46.3 95 7.1 44.9
07:25 1013 29.91 842 24.86 8 46.3 94 7.1 44.8
07:30 1013 29.91 842 24.86 7.9 46.3 94 7.1 44.7
07:35 1013 29.91 842 24.86 8 46.4 94 7.2 44.9
07:40 1013 29.91 842 24.86 8.1 46.6 94 7.2 44.9
07:45 1013 29.91 842 24.86 8.1 46.5 94 7.2 45
07:50 1013 29.91 842 24.86 8.1 46.6 94 7.1 44.9
07:55 1013 29.91 842 24.86 8.1 46.6 94 7.2 44.9
08:00 1013 29.91 842 24.86 8.2 46.8 93 7.2 44.9
08:05 1013 29.91 843 24.89 8.1 46.5 93 7 44.6
08:10 1014 29.94 843 24.89 7.8 46.1 94 7 44.6
08:15 1013 29.91 842 24.86 7.7 45.9 95 7 44.6
08:20 1013 29.91 842 24.86 7.9 46.3 95 7.2 45
08:25 1013 29.91 842 24.86 8.1 46.5 96 7.4 45.3
08:30 1013 29.91 842 24.86 8.1 46.6 95 7.4 45.3
08:35 1013 29.91 842 24.86 8.2 46.7 95 7.4 45.4
08:40 1013 29.91 842 24.86 8.2 46.7 95 7.5 45.4
08:45 1013 29.91 842 24.86 8.2 46.7 95 7.4 45.3
08:50 1013 29.91 842 24.86 8.2 46.7 94 7.2 45
08:55 1013 29.91 842 24.86 8.2 46.7 94 7.2 45
09:00 1013 29.91 842 24.86 8.3 47 93 7.2 45
09:05 1013 29.91 842 24.86 8.3 47 93 7.2 45
09:10 1013 29.91 842 24.86 8.3 47 93 7.2 45
09:15 1013 29.91 842 24.86 8.3 46.9 93 7.3 45.1
09:20 1013 29.91 842 24.86 8.3 47 93 7.3 45.1
09:25 1013 29.91 842 24.86 8.3 46.9 93 7.2 44.9
09:30 1013 29.91 842 24.86 8.3 46.9 93 7.2 44.9
09:35 1013 29.91 842 24.86 8.4 47 93 7.3 45.2
09:40 1013 29.91 842 24.86 8.4 47.1 93 7.4 45.3
09:45 1013 29.91 842 24.86 8.4 47.1 91 7.1 44.8
09:50 1013 29.91 842 24.86 8.3 46.9 92 7 44.7
09:55 1013 29.91 842 24.86 8.1 46.6 92 7 44.6
10:00 1013 29.91 842 24.86 8.1 46.6 92 6.9 44.5
10:05 1013 29.91 842 24.86 8.2 46.7 93 7.1 44.7
10:10 1013 29.91 842 24.86 8.3 47 93 7.3 45.1
10:15 1013 29.91 842 24.86 8.5 47.2 92 7.3 45.1
10:20 1013 29.91 842 24.86 8.6 47.5 92 7.3 45.2
10:25 1013 29.91 842 24.86 8.8 47.9 91 7.5 45.4
10:30 1013 29.91 842 24.86 8.9 48 89 7.2 45
10:35 1013 29.91 842 24.86 8.6 47.6 90 7.1 44.8
10:40 1013 29.91 842 24.86 8.6 47.5 92 7.3 45.1
10:45 1013 29.91 842 24.86 8.6 47.6 91 7.3 45.1
10:50 1013 29.91 842 24.86 8.7 47.7 89 7.1 44.7
10:55 1013 29.91 843 24.89 8.6 47.5 90 7 44.6
11:00 1013 29.91 843 24.89 8.4 47.1 92 7.1 44.8
11:05 1013 29.91 843 24.89 8.2 46.8 92 7 44.6
11:10 1013 29.91 843 24.89 8.4 47 92 7.1 44.8
11:15 1013 29.91 843 24.89 8.6 47.4 91 7.2 44.9
11:20 1013 29.91 842 24.86 8.8 47.9 91 7.4 45.4
11:25 1013 29.91 842 24.86 8.8 47.8 90 7.2 44.9
11:30 1013 29.91 843 24.89 8.7 47.7 91 7.3 45.2
11:35 1013 29.91 843 24.89 8.7 47.7 90 7.2 44.9
11:40 1013 29.91 843 24.89 8.7 47.7 89 7.1 44.7
11:45 1014 29.94 843 24.89 8.7 47.6 90 7.1 44.7
11:50 1014 29.94 843 24.89 8.5 47.3 89 6.9 44.4
11:55 1014 29.94 843 24.89 8.2 46.8 90 6.7 44
12:00 1013 29.91 843 24.89 8.1 46.6 90 6.6 43.9
12:05 1013 29.91 843 24.89 8.2 46.8 90 6.7 44.1
12:10 1013 29.91 843 24.89 8.6 47.4 89 6.9 44.4
12:15 1013 29.91 843 24.89 9 48.1 89 7.3 45.1
12:20 1013 29.91 843 24.89 9.4 48.9 86 7.2 45
12:25 1013 29.91 843 24.89 9.5 49.1 82 6.6 43.9
12:30 1013 29.91 843 24.89 10.1 50.1 84 7.4 45.4
12:35 1013 29.91 843 24.89 10.4 50.7 80 7.2 44.9
12:40 1013 29.91 843 24.89 10.2 50.4 78 6.6 43.9
12:45 1013 29.91 843 24.89 10.4 50.7 78 6.7 44
12:50 1013 29.91 843 24.89 10.7 51.3 76 6.7 44.1
12:55 1013 29.91 843 24.89 11 51.8 76 6.9 44.5
13:00 1013 29.91 843 24.89 11 51.8 75 6.7 44.1
13:05 1013 29.91 843 24.89 10.9 51.5 78 7.1 44.8
13:10 1013 29.91 843 24.89 10.6 51.1 79 7.1 44.7
13:15 1013 29.91 843 24.89 10.4 50.8 77 6.7 44
13:20 1013 29.91 843 24.89 10.4 50.7 78 6.7 44
13:25 1013 29.91 843 24.89 10.6 51.1 78 7 44.6
13:30 1013 29.91 843 24.89 10.8 51.4 78 7.1 44.7
13:35 1013 29.91 843 24.89 11.1 51.9 74 6.6 44
13:40 1013 29.91 843 24.89 10.8 51.4 77 6.9 44.4
13:45 1013 29.91 843 24.89 10.9 51.7 77 7 44.7
13:50 1013 29.91 843 24.89 11.1 52 75 6.9 44.3
13:55 1014 29.94 843 24.89 11 51.8 75 6.8 44.3
14:00 1014 29.94 843 24.89 10.9 51.6 74 6.4 43.5
14:05 1014 29.94 843 24.89 10.9 51.6 75 6.7 44.1
14:10 1014 29.94 843 24.89 11.3 52.4 74 6.9 44.5
14:15 1014 29.94 843 24.89 11.3 52.3 74 6.8 44.2
14:20 1014 29.94 843 24.89 11.4 52.5 72 6.5 43.7
14:25 1014 29.94 843 24.89 11 51.8 76 7 44.6
14:30 1014 29.94 843 24.89 10.8 51.4 76 6.7 44.1
14:35 1014 29.94 843 24.89 11 51.8 79 7.6 45.6
14:40 1014 29.94 843 24.89 11 51.7 81 7.9 46.3
14:45 1014 29.94 843 24.89 10.5 50.8 82 7.6 45.6
14:50 1014 29.94 843 24.89 10.3 50.6 81 7.2 45
14:55 1014 29.94 843 24.89 10.4 50.8 81 7.3 45.2
15:00 1014 29.94 843 24.89 10.3 50.5 81 7.2 44.9
15:05 1014 29.94 843 24.89 10.4 50.8 78 6.8 44.3
15:10 1014 29.94 843 24.89 10.6 51.1 76 6.6 43.9
15:15 1014 29.94 843 24.89 10.6 51.1 76 6.6 43.8
15:20 1014 29.94 843 24.89 10.7 51.3 78 7 44.6
15:25 1014 29.94 843 24.89 11.1 51.9 77 7.2 44.9
15:30 1014 29.94 843 24.89 11.1 52 74 6.6 43.9
15:35 1014 29.94 843 24.89 10.9 51.5 72 6 42.8
15:40 1014 29.94 843 24.89 10.8 51.4 72 6 42.8
15:45 1014 29.94 843 24.89 10.9 51.7 72 6.1 42.9
15:50 1014 29.94 843 24.89 10.9 51.6 73 6.4 43.4
15:55 1014 29.94 843 24.89 10.8 51.5 72 6 42.8
16:00 1014 29.94 843 24.89 10.8 51.5 72 6.1 43
16:05 1014 29.94 843 24.89 10.8 51.4 75 6.6 43.8
16:10 1014 29.94 844 24.92 10.7 51.2 79 7.2 44.9
16:15 1014 29.94 844 24.92 10.8 51.4 78 7.2 45
16:20 1014 29.94 844 24.92 11 51.8 75 6.8 44.3
16:25 1014 29.94 844 24.92 10.9 51.7 76 7 44.5
16:30 1014 29.94 844 24.92 10.7 51.3 77 6.8 44.3
16:35 1015 29.97 844 24.92 10.6 51.1 76 6.6 43.9
16:40 1015 29.97 844 24.92 10.5 50.9 76 6.5 43.8
16:45 1015 29.97 844 24.92 10.4 50.7 77 6.6 43.9
16:50 1015 29.97 844 24.92 10.2 50.4 80 7 44.5
16:55 1015 29.97 844 24.92 9.9 49.7 83 7.1 44.7
17:00 1015 29.97 844 24.92 9.6 49.3 84 7.1 44.7
17:05 1015 29.97 844 24.92 9.6 49.2 85 7.2 45
17:10 1015 29.97 844 24.92 9.6 49.2 84 7 44.7
17:15 1015 29.97 844 24.92 9.5 49.1 84 6.9 44.5
17:20 1015 29.97 844 24.92 9.4 48.9 86 7.2 45
17:25 1015 29.97 844 24.92 9.3 48.8 86 7 44.7
17:30 1015 29.97 844 24.92 9.3 48.8 86 7 44.7
17:35 1015 29.97 844 24.92 9.3 48.8 86 7 44.7
17:40 1015 29.97 844 24.92 9.4 48.8 85 7 44.7
17:45 1015 29.97 844 24.92 9.3 48.8 86 7.2 44.9
17:50 1015 29.97 845 24.95 9.3 48.7 86 7.1 44.7
17:55 1016 30 845 24.95 9.2 48.5 86 6.9 44.5
18:00 1016 30 845 24.95 8.9 47.9 89 7.1 44.7
18:05 1016 30 845 24.95 8.1 46.5 88 6.1 43.1
18:10 1016 30 845 24.95 7.5 45.5 90 6 42.8
18:15 1016 30 845 24.95 7.2 45 91 5.9 42.7
18:20 1016 30 845 24.95 7.1 44.9 93 6 42.8
18:25 1016 30 845 24.95 7.1 44.8 92 6 42.8
18:30 1016 30 845 24.95 7.1 44.8 91 5.8 42.5
18:35 1016 30 845 24.95 7 44.6 89 5.4 41.6
18:40 1016 30 845 24.95 7 44.6 87 5 41
18:45 1016 30 845 24.95 7.1 44.7 88 5.3 41.5
18:50 1016 30 846 24.98 7 44.7 88 5.1 41.2
18:55 1016 30 846 24.98 6.9 44.4 87 4.8 40.7
19:00 1016 30 846 24.98 6.8 44.3 87 4.9 40.7
19:05 1016 30 846 24.98 6.8 44.3 86 4.6 40.3
19:10 1016 30 846 24.98 6.8 44.3 86 4.6 40.3
19:15 1016 30 846 24.98 6.8 44.3 87 4.8 40.6
19:20 1016 30 846 24.98 6.9 44.4 89 5.2 41.4
19:25 1017 30.03 846 24.98 7 44.6 88 5.2 41.4
19:30 1017 30.03 846 24.98 7 44.7 88 5.2 41.4
19:35 1016 30 846 24.98 7 44.6 87 5 41
19:40 1016 30 846 24.98 7.1 44.7 88 5.2 41.4
19:45 1017 30.03 846 24.98 7.1 44.8 87 5.1 41.1
19:50 1017 30.03 846 24.98 7.2 45 86 5 40.9
19:55 1017 30.03 846 24.98 7.2 45 85 4.9 40.9
20:00 1017 30.03 846 24.98 7.4 45.3 83 4.7 40.4
20:05 1017 30.03 846 24.98 7.4 45.3 82 4.6 40.2
20:10 1017 30.03 846 24.98 7.5 45.4 82 4.6 40.3
20:15 1017 30.03 846 24.98 7.4 45.3 84 4.8 40.7
20:20 1017 30.03 846 24.98 7.4 45.2 87 5.3 41.6
20:25 1017 30.03 846 24.98 7.1 44.7 89 5.3 41.5
20:30 1017 30.03 846 24.98 7 44.6 89 5.2 41.4
20:35 1017 30.03 846 24.98 7.1 44.8 86 5 40.9
20:40 1017 30.03 846 24.98 7.2 44.9 86 5 41.1
20:45 1017 30.03 846 24.98 7.2 45 87 5.2 41.4
20:50 1017 30.03 846 24.98 7.1 44.8 88 5.3 41.6
20:55 1017 30.03 846 24.98 7 44.5 89 5.3 41.6
21:00 1017 30.03 846 24.98 6.9 44.5 88 5.1 41.1
21:05 1017 30.03 846 24.98 6.8 44.2 89 5.1 41.2
21:10 1017 30.03 846 24.98 6.7 44 88 4.8 40.6
21:15 1017 30.03 847 25.01 6.7 44.1 86 4.6 40.2
21:20 1017 30.03 847 25.01 6.7 44.1 86 4.6 40.3
21:25 1017 30.03 847 25.01 6.7 44 86 4.6 40.2
21:30 1017 30.03 847 25.01 6.6 43.8 89 4.8 40.7
21:35 1017 30.03 847 25.01 6.5 43.8 89 4.9 40.9
21:40 1017 30.03 847 25.01 6.5 43.7 89 4.8 40.7
21:45 1017 30.03 847 25.01 6.5 43.7 87 4.6 40.2
21:50 1017 30.03 847 25.01 6.5 43.8 89 4.9 40.8
21:55 1017 30.03 847 25.01 6.5 43.7 90 5 41
22:00 1017 30.03 847 25.01 6.5 43.7 88 4.7 40.5
22:05 1017 30.03 847 25.01 6.5 43.7 89 4.8 40.6
22:10 1018 30.06 847 25.01 6.5 43.8 90 5 40.9
22:15 1018 30.06 847 25.01 6.5 43.7 88 4.7 40.4
22:20 1018 30.06 847 25.01 6.5 43.8 87 4.6 40.3
22:25 1018 30.06 847 25.01 6.6 43.9 87 4.7 40.4
22:30 1018 30.06 847 25.01 6.8 44.2 88 4.9 40.8
22:35 1018 30.06 847 25.01 6.7 44.1 88 4.9 40.8
22:40 1018 30.06 847 25.01 6.8 44.2 88 4.9 40.7
22:45 1018 30.06 847 25.01 6.8 44.2 87 4.8 40.6
22:50 1018 30.06 847 25.01 6.9 44.4 85 4.6 40.3
22:55 1018 30.06 847 25.01 7 44.6 85 4.6 40.3
23:00 1018 30.06 848 25.04 7 44.6 83 4.4 39.9
23:05 1018 30.06 848 25.04 7 44.6 86 4.9 40.8
23:10 1018 30.06 848 25.04 6.9 44.4 88 5 40.9
23:15 1019 30.09 848 25.04 6.7 44.1 87 4.8 40.6
23:20 1019 30.09 848 25.04 6.5 43.7 87 4.5 40.1
23:25 1019 30.09 848 25.04 6.3 43.4 89 4.6 40.4
23:30 1019 30.09 848 25.04 6.2 43.1 90 4.6 40.3
23:35 1019 30.09 848 25.04 6.1 42.9 90 4.5 40.2
23:40 1019 30.09 848 25.04 6 42.8 90 4.5 40
23:45 1019 30.09 848 25.04 5.9 42.6 90 4.4 40
23:50 1019 30.09 848 25.04 5.9 42.5 90 4.3 39.7
23:55 1019 30.09 848 25.04 5.8 42.4 91 4.5 40.1
24:00 1019 30.09 848 25.04 5.8 42.4 92 4.5 40.1